Terminal Aerodrome Forecast
Issued by NWS Grand Forks, ND

Home | Current Version | Previous Version | Text Only | Print | Product List | Glossary On
Versions: 1 2 3 4 5 6 7 8 9 10 11
000
FTUS43 KFGF 301720
TAFFAR
TAF
KFAR 301720Z 3018/0118 06019G27KT P6SM FEW250
     FM302300 05015KT P6SM SCT250
     FM010200 04009KT P6SM FEW250
     FM010700 04005KT P6SM SKC=

USA.gov is the U.S. government's official web portal to all federal, state and local government web resources and services.